createdAt,value
2019-01-03T00:00:27.887Z,4.70
2019-01-03T00:03:25.094Z,5.57
2019-01-03T00:06:12.067Z,4.50
2019-01-03T00:08:59.139Z,4.33
2019-01-03T00:11:46.515Z,4.87
2019-01-03T00:14:44.554Z,4.67
2019-01-03T00:17:42.035Z,4.97
2019-01-03T00:20:25.589Z,4.90
2019-01-03T00:23:13.880Z,5.17
2019-01-03T00:25:57.210Z,4.63
2019-01-03T00:29:01.466Z,5.50
2019-01-03T00:31:48.474Z,4.50
2019-01-03T00:34:42.827Z,4.80
2019-01-03T00:37:29.631Z,5.30
2019-01-03T00:40:18.151Z,4.70
2019-01-03T00:43:04.943Z,5.03
2019-01-03T00:45:53.185Z,5.40
2019-01-03T00:48:40.125Z,4.30
2019-01-03T00:51:34.844Z,6.23
2019-01-03T00:54:38.507Z,5.20
2019-01-03T00:57:35.739Z,5.03
2019-01-03T01:00:16.698Z,4.70
2019-01-03T01:03:01.258Z,4.87
2019-01-03T01:06:08.043Z,5.17
2019-01-03T01:09:13.259Z,5.80
2019-01-03T01:12:01.559Z,4.43
2019-01-03T01:14:48.495Z,4.20
2019-01-03T01:17:35.680Z,4.93
2019-01-03T01:20:19.605Z,4.90
2019-01-03T01:23:42.303Z,5.70
2019-01-03T01:26:30.554Z,4.50
2019-01-03T01:29:23.190Z,5.10
2019-01-03T01:32:10.624Z,5.70
2019-01-03T01:34:57.683Z,5.20
2019-01-03T01:37:47.547Z,5.00
2019-01-03T01:40:37.447Z,5.70
2019-01-03T01:43:24.282Z,4.90
2019-01-03T01:46:15.685Z,5.50
2019-01-03T01:49:13.515Z,5.57
2019-01-03T01:52:01.771Z,5.67
2019-01-03T01:55:01.511Z,4.80
2019-01-03T01:57:48.750Z,5.60
2019-01-03T02:00:32.196Z,5.83
2019-01-03T02:03:21.046Z,5.00
2019-01-03T02:05:58.803Z,5.67
2019-01-03T02:08:50.323Z,5.60
2019-01-03T02:11:37.352Z,5.43
2019-01-03T02:14:26.543Z,5.93
2019-01-03T02:17:01.532Z,5.70
2019-01-03T02:19:48.523Z,6.17
2019-01-03T02:22:31.695Z,4.67
2019-01-03T02:25:32.137Z,5.30
2019-01-03T02:28:29.753Z,5.30
2019-01-03T02:31:21.773Z,5.70
2019-01-03T02:34:10.323Z,5.23
2019-01-03T02:36:54.416Z,6.37
2019-01-03T02:39:49.636Z,6.00
2019-01-03T02:42:38.999Z,6.17
2019-01-03T02:45:27.732Z,5.47
2019-01-03T02:48:13.092Z,5.70
2019-01-03T02:51:04.302Z,4.80
2019-01-03T02:53:57.723Z,4.77
2019-01-03T02:56:58.387Z,5.50
2019-01-03T02:59:46.019Z,6.97
2019-01-03T03:02:24.777Z,5.53
2019-01-03T03:05:12.243Z,4.33
2019-01-03T03:08:06.500Z,6.53
2019-01-03T03:10:54.834Z,5.20
2019-01-03T03:13:39.495Z,5.60
2019-01-03T03:16:26.540Z,5.87
2019-01-03T03:19:13.520Z,4.97
2019-01-03T03:21:59.428Z,5.40
2019-01-03T03:24:49.191Z,4.50
2019-01-03T03:27:30.386Z,5.00
2019-01-03T03:30:31.208Z,5.60
2019-01-03T03:33:23.244Z,4.77
2019-01-03T03:36:14.880Z,5.40
2019-01-03T03:39:01.864Z,5.40
2019-01-03T03:42:08.568Z,5.23
2019-01-03T03:44:50.687Z,6.40
2019-01-03T03:47:48.427Z,6.47
2019-01-03T03:50:36.722Z,6.77
2019-01-03T03:53:23.651Z,4.83
2019-01-03T03:56:10.638Z,6.30
2019-01-03T03:59:05.261Z,4.80
2019-01-03T04:01:52.019Z,5.37
2019-01-03T04:04:40.304Z,5.47
2019-01-03T04:07:46.933Z,5.53
2019-01-03T04:10:44.336Z,4.63
2019-01-03T04:13:44.671Z,5.50
2019-01-03T04:16:23.423Z,4.63
2019-01-03T04:19:20.811Z,4.67
2019-01-03T04:22:18.136Z,3.90
2019-01-03T04:25:05.464Z,4.90
2019-01-03T04:27:49.419Z,4.60
2019-01-03T04:30:31.224Z,3.50
2019-01-03T04:33:35.017Z,4.73
2019-01-03T04:36:18.656Z,5.60
2019-01-03T04:39:22.102Z,5.87
2019-01-03T04:42:28.876Z,5.60
2019-01-03T04:45:22.475Z,5.40
2019-01-03T04:48:12.255Z,6.40
2019-01-03T04:51:07.301Z,5.37
2019-01-03T04:53:55.671Z,4.30
2019-01-03T04:56:47.703Z,4.90
2019-01-03T04:59:35.939Z,4.47
2019-01-03T05:02:31.522Z,5.50
2019-01-03T05:05:35.108Z,4.33
2019-01-03T05:08:32.378Z,4.83
2019-01-03T05:11:19.675Z,4.37
2019-01-03T05:13:56.803Z,4.60
2019-01-03T05:16:44.036Z,4.60
2019-01-03T05:19:32.295Z,4.13
2019-01-03T05:22:32.824Z,4.63
2019-01-03T05:25:19.775Z,5.00
2019-01-03T05:28:23.201Z,3.50
2019-01-03T05:31:26.968Z,5.27
2019-01-03T05:34:06.047Z,4.20
2019-01-03T05:36:55.826Z,4.20
2019-01-03T05:39:47.064Z,4.37
2019-01-03T05:42:38.359Z,4.00
2019-01-03T05:45:26.662Z,5.00
2019-01-03T05:48:13.729Z,4.93
2019-01-03T05:51:02.047Z,4.80
2019-01-03T05:53:49.215Z,5.00
2019-01-03T05:56:53.513Z,5.77
2019-01-03T05:59:39.803Z,5.00
2019-01-03T06:02:28.149Z,4.10
2019-01-03T06:05:15.064Z,4.10
2019-01-03T06:07:59.627Z,3.90
2019-01-03T06:10:46.144Z,4.93
2019-01-03T06:13:43.937Z,3.43
2019-01-03T06:16:30.901Z,3.70
2019-01-03T06:19:18.717Z,4.13
2019-01-03T06:22:10.182Z,3.70
2019-01-03T06:25:16.498Z,3.93
2019-01-03T06:28:23.185Z,4.27
2019-01-03T06:31:11.436Z,4.23
2019-01-03T06:33:58.379Z,4.10
2019-01-03T06:36:55.620Z,4.10
2019-01-03T06:39:39.256Z,3.77
2019-01-03T06:42:39.667Z,4.40
2019-01-03T06:45:25.470Z,4.93
2019-01-03T06:48:12.733Z,5.30
2019-01-03T06:50:59.875Z,5.00
2019-01-03T06:53:48.800Z,4.87
2019-01-03T06:56:56.242Z,3.80
2019-01-03T06:59:43.679Z,5.60
2019-01-03T07:02:34.064Z,5.87
2019-01-03T07:05:22.358Z,4.60
2019-01-03T07:08:23.257Z,4.87
2019-01-03T07:11:10.278Z,5.23
2019-01-03T07:14:13.979Z,4.53
2019-01-03T07:17:03.075Z,4.40
2019-01-03T07:19:50.799Z,4.77
2019-01-03T07:22:37.918Z,5.77
2019-01-03T07:25:23.693Z,4.23
2019-01-03T07:28:18.086Z,5.77
2019-01-03T07:31:18.723Z,5.10
2019-01-03T07:34:05.751Z,5.33
2019-01-03T07:36:51.835Z,4.07
2019-01-03T07:39:49.383Z,5.40
2019-01-03T07:42:53.055Z,6.00
2019-01-03T07:45:41.291Z,4.10
2019-01-03T07:48:42.159Z,5.70
2019-01-03T07:51:38.680Z,4.67
2019-01-03T07:54:29.983Z,4.47
2019-01-03T07:57:24.653Z,4.67
2019-01-03T08:00:30.975Z,4.93
2019-01-03T08:03:13.954Z,4.40
2019-01-03T08:06:02.298Z,4.30
2019-01-03T08:08:49.578Z,3.90
2019-01-03T08:11:36.806Z,5.40
2019-01-03T08:14:24.020Z,4.80
2019-01-03T08:17:17.136Z,4.07
2019-01-03T08:20:11.327Z,4.70
2019-01-03T08:23:02.623Z,4.97
2019-01-03T08:26:02.699Z,4.53
2019-01-03T08:28:56.892Z,4.60
2019-01-03T08:31:44.130Z,6.93
2019-01-03T08:34:32.657Z,4.10
2019-01-03T08:37:27.153Z,3.70
2019-01-03T08:40:12.046Z,4.10
2019-01-03T08:43:12.930Z,5.10
2019-01-03T08:45:59.930Z,5.90
2019-01-03T08:51:42.415Z,3.93
2019-01-03T08:54:32.642Z,3.90
2019-01-03T08:57:23.142Z,3.70
2019-01-03T09:00:14.446Z,4.10
2019-01-03T09:03:03.182Z,4.70
2019-01-03T09:05:50.447Z,4.37
2019-01-03T09:08:56.834Z,4.30
2019-01-03T09:11:43.970Z,5.80
2019-01-03T09:14:38.534Z,4.37
2019-01-03T09:17:25.643Z,4.80
2019-01-03T09:20:22.138Z,5.33
2019-01-03T09:23:09.219Z,4.80
2019-01-03T09:26:10.851Z,5.10
2019-01-03T09:29:02.740Z,3.30
2019-01-03T09:32:01.668Z,2.60
2019-01-03T09:34:52.822Z,3.33
2019-01-03T09:37:39.996Z,4.47
2019-01-03T09:40:34.422Z,4.13
2019-01-03T09:43:29.143Z,4.27
2019-01-03T09:45:58.538Z,4.90
2019-01-03T09:48:27.735Z,4.63
2019-01-03T09:50:56.937Z,4.50
2019-01-03T09:53:26.065Z,4.03
2019-01-03T09:55:55.462Z,3.63
2019-01-03T09:58:24.535Z,3.30
2019-01-03T10:00:53.639Z,3.50
2019-01-03T10:03:23.300Z,3.93
2019-01-03T10:05:52.485Z,3.77
2019-01-03T10:08:21.599Z,3.47
2019-01-03T10:10:51.052Z,3.60
2019-01-03T10:13:20.391Z,3.10
2019-01-03T10:15:49.558Z,2.73
2019-01-03T10:18:18.624Z,3.37
2019-01-03T10:20:47.793Z,3.50
2019-01-03T10:23:16.855Z,3.90
2019-01-03T10:25:46.016Z,3.20
2019-01-03T10:28:15.222Z,2.73
2019-01-03T10:30:45.642Z,2.17
2019-01-03T10:33:14.967Z,2.47
2019-01-03T10:35:44.286Z,2.97
2019-01-03T10:38:13.892Z,3.60
2019-01-03T10:40:42.990Z,4.67
2019-01-03T10:43:12.604Z,3.93
2019-01-03T10:45:42.043Z,3.10
2019-01-03T10:48:11.973Z,2.80
2019-01-03T10:50:41.343Z,3.07
2019-01-03T10:53:10.840Z,2.70
2019-01-03T10:55:39.997Z,2.70
2019-01-03T10:58:09.393Z,2.30
2019-01-03T11:00:39.167Z,2.53
2019-01-03T11:03:08.327Z,2.47
2019-01-03T11:05:37.724Z,3.00
2019-01-03T11:08:06.869Z,3.60
2019-01-03T11:10:35.999Z,2.70
2019-01-03T11:13:05.220Z,3.60
2019-01-03T11:15:34.338Z,3.53
2019-01-03T11:18:03.507Z,2.73
2019-01-03T11:20:32.598Z,2.53
2019-01-03T11:23:01.953Z,3.13
2019-01-03T11:25:31.081Z,3.10
2019-01-03T11:28:00.665Z,3.50
2019-01-03T11:30:29.744Z,4.63
2019-01-03T11:32:58.855Z,4.83
2019-01-03T11:35:28.038Z,5.27
2019-01-03T11:37:57.208Z,5.50
2019-01-03T11:40:26.379Z,5.60
2019-01-03T11:42:55.493Z,5.57
2019-01-03T11:45:24.655Z,4.73
2019-01-03T11:47:53.911Z,5.80
2019-01-03T11:50:23.060Z,6.30
2019-01-03T11:52:52.199Z,6.10
2019-01-03T11:55:21.263Z,6.17
2019-01-03T11:57:50.399Z,6.30
2019-01-03T12:00:19.566Z,5.00
2019-01-03T12:02:48.668Z,5.40
2019-01-03T12:05:17.856Z,5.57
2019-01-03T12:07:47.171Z,5.40
2019-01-03T12:10:16.594Z,6.70
2019-01-03T12:12:45.740Z,5.13
2019-01-03T12:15:14.907Z,5.80
2019-01-03T12:17:44.302Z,6.63
2019-01-03T12:20:13.474Z,6.43
2019-01-03T12:22:42.610Z,5.67
2019-01-03T12:25:11.955Z,6.27
2019-01-03T12:27:41.427Z,5.10
2019-01-03T12:30:10.641Z,6.00
2019-01-03T12:32:40.335Z,5.77
2019-01-03T12:35:09.491Z,5.50
2019-01-03T12:37:38.586Z,4.20
2019-01-03T12:40:08.614Z,5.07
2019-01-03T12:42:37.765Z,5.70
2019-01-03T12:45:07.347Z,5.17
2019-01-03T12:47:36.429Z,5.67
2019-01-03T12:50:06.953Z,5.07
2019-01-03T12:52:36.695Z,4.67
2019-01-03T12:55:05.894Z,4.87
2019-01-03T12:57:35.111Z,5.07
2019-01-03T13:00:05.978Z,5.67
2019-01-03T13:02:35.243Z,4.93
2019-01-03T13:05:04.719Z,5.23
2019-01-03T13:07:34.458Z,4.20
2019-01-03T13:10:03.915Z,3.53
2019-01-03T13:12:33.108Z,2.97
2019-01-03T13:15:02.327Z,4.03
2019-01-03T13:17:31.639Z,4.00
2019-01-03T13:20:01.014Z,3.50
2019-01-03T13:22:30.074Z,3.50
2019-01-03T13:24:59.710Z,3.50
2019-01-03T13:27:28.863Z,3.20
2019-01-03T13:29:58.074Z,3.13
2019-01-03T13:32:27.397Z,3.50
2019-01-03T13:34:56.904Z,3.80
2019-01-03T13:37:26.242Z,3.30
2019-01-03T13:39:55.331Z,3.50
2019-01-03T13:42:24.812Z,3.73
2019-01-03T13:44:54.086Z,4.07
2019-01-03T13:47:23.202Z,3.40
2019-01-03T13:49:52.375Z,3.60
2019-01-03T13:52:21.490Z,3.00
2019-01-03T13:54:50.984Z,3.37
2019-01-03T13:57:20.224Z,3.23
2019-01-03T13:59:49.404Z,3.63
2019-01-03T14:02:18.734Z,3.10
2019-01-03T14:04:47.882Z,3.60
2019-01-03T14:07:16.995Z,3.03
2019-01-03T14:09:46.391Z,3.80
2019-01-03T14:12:15.923Z,2.60
2019-01-03T14:14:45.317Z,2.77
2019-01-03T14:17:16.148Z,3.60
2019-01-03T14:19:45.318Z,3.13
2019-01-03T14:22:14.535Z,2.20
2019-01-03T14:24:43.668Z,2.70
2019-01-03T14:27:13.376Z,3.13
2019-01-03T14:29:42.515Z,2.93
2019-01-03T14:32:11.901Z,3.87
2019-01-03T14:34:41.019Z,3.43
2019-01-03T14:37:10.200Z,3.27
2019-01-03T14:39:39.339Z,3.00
2019-01-03T14:42:08.532Z,3.70
2019-01-03T14:44:37.675Z,3.10
2019-01-03T14:47:06.891Z,3.13
2019-01-03T14:49:36.286Z,3.53
2019-01-03T14:52:05.510Z,3.60
2019-01-03T14:54:34.742Z,3.80
2019-01-03T14:57:04.175Z,3.00
2019-01-03T14:59:33.308Z,3.83
2019-01-03T15:02:21.891Z,3.37
2019-01-03T15:04:50.955Z,3.57
2019-01-03T15:07:20.052Z,3.37
2019-01-03T15:09:49.204Z,3.00
2019-01-03T15:12:18.637Z,4.30
2019-01-03T15:14:48.058Z,3.77
2019-01-03T15:17:17.399Z,3.20
2019-01-03T15:19:46.469Z,3.83
2019-01-03T15:22:15.711Z,3.30
2019-01-03T15:24:44.900Z,3.83
2019-01-03T15:27:14.083Z,4.10
2019-01-03T15:29:43.523Z,3.70
2019-01-03T15:32:12.719Z,2.50
2019-01-03T15:34:41.800Z,2.27
2019-01-03T15:37:10.894Z,2.83
2019-01-03T15:39:40.219Z,3.13
2019-01-03T15:42:10.060Z,2.87
2019-01-03T15:44:39.857Z,3.60
2019-01-03T15:47:09.021Z,3.80
2019-01-03T15:49:38.087Z,3.10
2019-01-03T15:52:26.408Z,2.93
2019-01-03T15:54:55.530Z,2.50
2019-01-03T15:57:25.159Z,1.50
2019-01-03T15:59:54.207Z,2.30
2019-01-03T16:02:23.394Z,1.77
2019-01-03T16:04:52.512Z,1.73
2019-01-03T16:07:21.733Z,2.00
2019-01-03T16:09:51.154Z,1.53
2019-01-03T16:12:20.255Z,1.77
2019-01-03T16:14:50.035Z,1.83
2019-01-03T16:17:19.130Z,2.37
2019-01-03T16:19:48.195Z,2.27
2019-01-03T16:22:17.384Z,1.90
2019-01-03T16:24:46.467Z,2.77
2019-01-03T16:27:15.685Z,2.10
2019-01-03T16:29:44.821Z,2.37
2019-01-03T16:32:14.268Z,2.80
2019-01-03T16:34:43.347Z,2.37
2019-01-03T16:37:12.811Z,2.10
2019-01-03T16:39:41.881Z,2.73
2019-01-03T16:42:11.696Z,2.90
2019-01-03T16:44:41.131Z,3.20
2019-01-03T16:47:10.330Z,3.10
2019-01-03T16:49:39.508Z,2.40
2019-01-03T16:52:08.688Z,2.30
2019-01-03T16:54:37.856Z,2.23
2019-01-03T16:57:07.077Z,2.20
2019-01-03T16:59:36.231Z,2.20
2019-01-03T17:02:05.537Z,2.93
2019-01-03T17:04:34.907Z,2.33
2019-01-03T17:07:04.354Z,3.07
2019-01-03T17:09:33.488Z,2.60
2019-01-03T17:12:02.702Z,2.17
2019-01-03T17:14:32.385Z,2.13
2019-01-03T17:17:01.643Z,2.70
2019-01-03T17:19:30.704Z,2.60
2019-01-03T17:22:00.204Z,3.77
2019-01-03T17:24:29.267Z,2.50
2019-01-03T17:26:58.495Z,2.47
2019-01-03T17:29:27.930Z,2.53
2019-01-03T17:31:57.062Z,2.70
2019-01-03T17:34:26.300Z,2.30
2019-01-03T17:36:55.784Z,2.73
2019-01-03T17:39:24.886Z,2.03
2019-01-03T17:41:54.383Z,2.27
2019-01-03T17:44:23.764Z,2.90
2019-01-03T17:46:53.275Z,3.33
2019-01-03T17:49:22.456Z,3.90
2019-01-03T17:51:51.858Z,3.17
2019-01-03T17:54:21.054Z,3.70
2019-01-03T17:56:50.727Z,5.23
2019-01-03T17:59:20.163Z,3.83
2019-01-03T18:01:49.310Z,4.07
2019-01-03T18:04:18.427Z,5.53
2019-01-03T18:06:47.536Z,6.47
2019-01-03T18:09:16.856Z,5.90
2019-01-03T18:11:46.000Z,7.00
2019-01-03T18:14:15.518Z,6.63
2019-01-03T18:16:44.662Z,6.83
2019-01-03T18:19:13.904Z,7.13
2019-01-03T18:21:43.262Z,6.63
2019-01-03T18:24:12.342Z,7.87
2019-01-03T18:26:41.493Z,7.20
2019-01-03T18:29:10.635Z,8.03
2019-01-03T18:31:40.081Z,7.50
2019-01-03T18:34:09.490Z,7.40
2019-01-03T18:36:38.547Z,8.07
2019-01-03T18:39:07.684Z,7.63
2019-01-03T18:41:37.239Z,7.60
2019-01-03T18:44:07.013Z,8.50
2019-01-03T18:46:36.420Z,7.23
2019-01-03T18:49:05.530Z,7.13
2019-01-03T18:51:34.771Z,7.10
2019-01-03T18:54:03.947Z,7.80
2019-01-03T18:56:33.013Z,5.87
2019-01-03T18:59:02.511Z,5.00
2019-01-03T19:01:31.592Z,4.93
2019-01-03T19:04:00.695Z,6.00
2019-01-03T19:06:30.082Z,7.50
2019-01-03T19:08:59.261Z,8.50
2019-01-03T19:11:28.611Z,8.43
2019-01-03T19:13:57.781Z,8.47
2019-01-03T19:16:26.949Z,8.80
2019-01-03T19:18:56.266Z,9.00
2019-01-03T19:21:25.391Z,8.53
2019-01-03T19:23:55.473Z,8.50
2019-01-03T19:26:25.151Z,8.07
2019-01-03T19:28:54.592Z,7.43
2019-01-03T19:31:23.792Z,8.10
2019-01-03T19:33:53.039Z,7.20
2019-01-03T19:36:22.431Z,8.00
2019-01-03T19:38:51.631Z,7.20
2019-01-03T19:41:20.683Z,6.03
2019-01-03T19:43:49.770Z,6.90
2019-01-03T19:46:18.856Z,4.77
2019-01-03T19:48:47.985Z,6.07
2019-01-03T19:51:17.046Z,4.77
2019-01-03T19:53:46.739Z,5.77
2019-01-03T19:56:15.878Z,5.00
2019-01-03T19:58:45.438Z,4.00
2019-01-03T20:01:14.487Z,5.83
2019-01-03T20:03:43.608Z,4.50
2019-01-03T20:06:13.344Z,4.13
2019-01-03T20:08:42.707Z,4.80
2019-01-03T20:11:12.147Z,4.07
2019-01-03T20:13:41.763Z,4.57
2019-01-03T20:16:11.102Z,3.53
2019-01-03T20:18:59.386Z,3.97
2019-01-03T20:21:28.694Z,4.30
2019-01-03T20:23:58.146Z,4.00
2019-01-03T20:26:27.283Z,4.00
2019-01-03T20:28:56.755Z,4.70
2019-01-03T20:31:25.819Z,5.10
2019-01-03T20:33:55.062Z,4.53
2019-01-03T20:36:24.483Z,3.83
2019-01-03T20:38:53.608Z,5.33
2019-01-03T20:41:22.997Z,4.47
2019-01-03T20:43:52.112Z,5.20
2019-01-03T20:46:21.252Z,4.60
2019-01-03T20:48:50.346Z,5.37
2019-01-03T20:51:19.851Z,4.97
2019-01-03T20:53:50.713Z,5.70
2019-01-03T20:56:19.837Z,5.30
2019-01-03T20:58:49.514Z,5.00
2019-01-03T21:01:18.591Z,5.17
2019-01-03T21:03:47.691Z,5.10
2019-01-03T21:06:17.025Z,4.57
2019-01-03T21:08:46.142Z,6.50
2019-01-03T21:11:15.543Z,8.20
2019-01-03T21:13:44.728Z,4.50
2019-01-03T21:16:14.035Z,4.90
2019-01-03T21:18:46.203Z,3.93
2019-01-03T21:21:13.955Z,3.20
2019-01-03T21:23:45.731Z,3.30
2019-01-03T21:26:14.788Z,3.43
2019-01-03T21:28:44.119Z,3.63
2019-01-03T21:31:13.505Z,3.57
2019-01-03T21:33:44.746Z,4.27
2019-01-03T21:36:33.054Z,3.27
2019-01-03T21:39:04.898Z,4.47
2019-01-03T21:41:34.231Z,4.10
2019-01-03T21:44:03.403Z,6.20
2019-01-03T21:46:32.542Z,5.90
2019-01-03T21:49:01.967Z,6.10
2019-01-03T21:51:31.201Z,6.70
2019-01-03T21:54:02.231Z,7.03
2019-01-03T21:56:31.650Z,5.30
2019-01-03T21:59:01.044Z,5.23
2019-01-03T22:01:30.178Z,4.97
2019-01-03T22:03:59.393Z,6.00
2019-01-03T22:06:28.470Z,5.60
2019-01-03T22:08:58.176Z,5.23
2019-01-03T22:11:27.295Z,5.10
2019-01-03T22:13:56.367Z,5.60
2019-01-03T22:16:25.828Z,6.00
2019-01-03T22:18:55.047Z,5.17
2019-01-03T22:21:24.307Z,5.20
2019-01-03T22:23:53.632Z,4.87
2019-01-03T22:26:22.791Z,4.97
2019-01-03T22:28:52.219Z,4.80
2019-01-03T22:31:21.384Z,5.37
2019-01-03T22:33:50.653Z,4.90
2019-01-03T22:36:20.008Z,5.57
2019-01-03T22:38:49.408Z,5.93
2019-01-03T22:41:20.205Z,5.17
2019-01-03T22:43:52.113Z,4.80
2019-01-03T22:46:22.614Z,4.73
2019-01-03T22:48:51.853Z,5.30
2019-01-03T22:51:20.991Z,6.00
2019-01-03T22:53:50.139Z,5.20
2019-01-03T22:56:19.293Z,5.73
2019-01-03T22:58:48.620Z,5.30
2019-01-03T23:01:17.839Z,5.70
2019-01-03T23:03:47.003Z,5.90
2019-01-03T23:06:16.194Z,6.90
2019-01-03T23:08:45.339Z,5.73
2019-01-03T23:11:14.696Z,6.30
2019-01-03T23:13:43.768Z,6.70
2019-01-03T23:16:12.911Z,5.23
2019-01-03T23:18:42.047Z,6.47
2019-01-03T23:21:11.117Z,6.33
2019-01-03T23:23:40.486Z,6.00
2019-01-03T23:26:09.659Z,5.83
2019-01-03T23:28:38.727Z,7.07
2019-01-03T23:31:07.891Z,6.60
2019-01-03T23:33:37.194Z,6.00
2019-01-03T23:36:06.395Z,6.77
2019-01-03T23:38:35.510Z,6.30
2019-01-03T23:41:04.645Z,6.50
2019-01-03T23:43:34.016Z,5.80
2019-01-03T23:46:03.184Z,6.13
2019-01-03T23:48:51.514Z,5.73
2019-01-03T23:51:20.896Z,10.53
2019-01-03T23:53:50.047Z,14.20
2019-01-03T23:56:19.191Z,8.60
2019-01-03T23:58:48.323Z,8.57
